Time;durP1;ratioP1;P1;durP2;ratioP2;P2;SDS_P1;SDS_P2;PMS_P1;PMS_P2;Temp;Humidity;BMP_temperature;BMP_pressure;BME280_temperature;BME280_humidity;BME280_pressure;Samples;Min_cycle;Max_cycle;Signal;HPM_P1;HPM_P2
2021/07/11 00:01:33;;;;;;;2.08;1.88;;;25.00;46.70;;;;;;4987925;28;20224;-61
2021/07/11 00:04:00;;;;;;;2.13;2.00;;;25.00;46.70;;;;;;4988287;28;20210;-61
2021/07/11 00:06:26;;;;;;;2.25;2.05;;;25.00;46.60;;;;;;4989919;28;20223;-62
2021/07/11 00:08:53;;;;;;;2.75;2.42;;;25.00;46.70;;;;;;4989452;28;20212;-61
2021/07/11 00:11:19;;;;;;;2.00;1.90;;;25.00;46.70;;;;;;4988832;28;20666;-62
2021/07/11 00:13:46;;;;;;;2.72;2.13;;;25.00;46.70;;;;;;4989815;28;20632;-61
2021/07/11 00:16:12;;;;;;;2.20;2.10;;;25.00;46.70;;;;;;4988205;28;20659;-61
2021/07/11 00:18:39;;;;;;;2.30;2.20;;;25.00;46.70;;;;;;4989468;28;20210;-62
2021/07/11 00:21:05;;;;;;;1.92;1.83;;;25.00;46.70;;;;;;4988827;28;20228;-61
2021/07/11 00:23:32;;;;;;;2.53;1.95;;;25.00;46.70;;;;;;5019113;23;20231;-47
2021/07/11 00:25:58;;;;;;;2.22;2.13;;;25.00;46.70;;;;;;5010055;28;20202;-51
2021/07/11 00:28:24;;;;;;;2.20;2.10;;;25.00;47.30;;;;;;5009311;28;20211;-54
2021/07/11 00:30:51;;;;;;;2.30;1.88;;;25.00;46.60;;;;;;5014292;28;20301;-51
2021/07/11 00:33:17;;;;;;;2.28;2.10;;;25.00;46.60;;;;;;5011887;28;20234;-52
2021/07/11 00:35:44;;;;;;;1.90;1.80;;;25.00;46.60;;;;;;5021938;28;20194;-52
2021/07/11 00:38:10;;;;;;;1.92;1.83;;;25.00;46.60;;;;;;5028954;28;20206;-50
2021/07/11 00:40:37;;;;;;;2.33;2.20;;;25.00;46.60;;;;;;5019589;28;20219;-51
2021/07/11 00:43:03;;;;;;;2.08;1.90;;;25.00;46.60;;;;;;5023449;28;20199;-55
2021/07/11 00:45:29;;;;;;;2.20;2.00;;;25.00;46.60;;;;;;5016988;28;20202;-51
2021/07/11 00:47:56;;;;;;;2.00;1.90;;;25.00;46.60;;;;;;5030044;28;20210;-50
2021/07/11 00:50:22;;;;;;;2.10;2.00;;;25.00;46.60;;;;;;5005382;28;20220;-52
2021/07/11 00:52:49;;;;;;;1.98;1.88;;;25.00;46.60;;;;;;5013344;28;20237;-52
2021/07/11 00:55:15;;;;;;;1.95;1.85;;;25.00;47.30;;;;;;5011316;28;20677;-52
2021/07/11 00:57:42;;;;;;;2.00;1.90;;;25.00;46.60;;;;;;5024482;28;20195;-49
2021/07/11 01:00:08;;;;;;;2.00;1.90;;;25.00;46.60;;;;;;5015774;28;20227;-52
2021/07/11 01:02:35;;;;;;;1.98;1.88;;;25.00;46.70;;;;;;5024560;28;20202;-51
2021/07/11 01:05:01;;;;;;;2.00;1.90;;;25.00;46.70;;;;;;5012041;28;20195;-48
2021/07/11 01:07:27;;;;;;;1.95;1.75;;;25.00;46.70;;;;;;5015129;28;20229;-51
2021/07/11 01:09:54;;;;;;;1.88;1.77;;;25.00;46.70;;;;;;5017648;28;20226;-50
2021/07/11 01:12:20;;;;;;;2.10;2.00;;;25.00;46.70;;;;;;5020779;28;20231;-47
2021/07/11 01:14:47;;;;;;;2.10;1.90;;;25.00;46.70;;;;;;5010699;28;20191;-52
2021/07/11 01:17:13;;;;;;;1.85;1.75;;;25.00;46.60;;;;;;5023623;28;20201;-51
2021/07/11 01:19:40;;;;;;;3.30;2.15;;;25.00;46.60;;;;;;5010836;28;20219;-51
2021/07/11 01:22:06;;;;;;;1.90;1.80;;;25.00;46.70;;;;;;5013584;28;20214;-52
2021/07/11 01:24:32;;;;;;;3.78;1.92;;;25.00;46.70;;;;;;5021492;28;20284;-51
2021/07/11 01:26:59;;;;;;;2.15;2.03;;;25.00;46.60;;;;;;5026686;28;20217;-53
2021/07/11 01:29:25;;;;;;;1.92;1.83;;;25.00;46.60;;;;;;5021244;28;20219;-49
2021/07/11 01:31:52;;;;;;;2.00;1.90;;;25.00;46.60;;;;;;5023039;28;20309;-48
2021/07/11 01:34:18;;;;;;;2.42;1.90;;;25.00;46.60;;;;;;5018070;28;20203;-50
2021/07/11 01:36:45;;;;;;;1.85;1.75;;;25.00;46.60;;;;;;5010023;28;20206;-54
2021/07/11 01:39:11;;;;;;;2.10;2.00;;;25.00;46.60;;;;;;5013352;28;20198;-51
2021/07/11 01:41:38;;;;;;;2.40;1.77;;;25.00;46.60;;;;;;5022016;28;20203;-48
2021/07/11 01:44:04;;;;;;;1.73;1.63;;;25.00;46.60;;;;;;5014596;28;20202;-51
2021/07/11 01:46:31;;;;;;;1.73;1.63;;;25.00;46.60;;;;;;5023903;28;20202;-49
2021/07/11 01:48:57;;;;;;;1.95;1.85;;;25.00;46.60;;;;;;5020465;28;20202;-52
2021/07/11 01:51:24;;;;;;;1.70;1.60;;;25.00;46.70;;;;;;5022717;28;20208;-52
2021/07/11 01:53:50;;;;;;;2.00;1.90;;;25.00;46.70;;;;;;5016878;28;20234;-52
2021/07/11 01:56:16;;;;;;;2.13;1.63;;;25.00;46.70;;;;;;5021613;28;20222;-53
2021/07/11 01:58:43;;;;;;;2.35;2.15;;;25.00;46.70;;;;;;5018146;28;20203;-52
2021/07/11 02:01:09;;;;;;;2.00;1.90;;;25.00;46.60;;;;;;5023187;28;20744;-51
2021/07/11 02:03:38;;;;;;;2.28;1.80;;;25.00;46.70;;;;;;5012379;28;20626;-48
2021/07/11 02:06:06;;;;;;;1.55;1.45;;;25.00;46.60;;;;;;5014397;28;20234;-47
2021/07/11 02:08:33;;;;;;;1.98;1.77;;;25.00;46.70;;;;;;5013375;28;20207;-54
2021/07/11 02:10:59;;;;;;;2.10;1.80;;;25.00;46.70;;;;;;5022460;28;20232;-48
2021/07/11 02:13:26;;;;;;;1.80;1.70;;;25.00;46.70;;;;;;5023866;28;20234;-47
2021/07/11 02:15:52;;;;;;;1.98;1.77;;;25.00;46.70;;;;;;5014937;28;20212;-52
2021/07/11 02:18:18;;;;;;;1.70;1.60;;;25.00;46.60;;;;;;5013473;28;20210;-48
2021/07/11 02:20:45;;;;;;;1.70;1.60;;;25.00;46.70;;;;;;5025398;28;20214;-50
2021/07/11 02:23:11;;;;;;;1.80;1.70;;;25.00;46.60;;;;;;5025334;28;20225;-52
2021/07/11 02:25:38;;;;;;;2.42;1.52;;;25.00;46.60;;;;;;5012815;28;20199;-49
2021/07/11 02:28:04;;;;;;;2.15;1.95;;;25.00;46.70;;;;;;5025204;28;20213;-50
2021/07/11 02:30:40;;;;;;;1.88;1.77;;;25.00;46.70;;;;;;5017911;28;20226;-48
2021/07/11 02:33:11;;;;;;;1.83;1.73;;;25.00;46.70;;;;;;5024894;28;20226;-51
2021/07/11 02:35:38;;;;;;;1.90;1.80;;;25.00;46.60;;;;;;5015277;28;20599;-52
2021/07/11 02:38:04;;;;;;;1.80;1.70;;;25.00;46.60;;;;;;5028349;28;20657;-50
2021/07/11 02:40:30;;;;;;;1.83;1.73;;;25.00;46.60;;;;;;5012885;28;20702;-52
2021/07/11 02:43:00;;;;;;;1.70;1.60;;;25.00;46.60;;;;;;5014088;28;20210;-52
2021/07/11 02:45:27;;;;;;;1.90;1.80;;;25.00;46.60;;;;;;5031258;28;20202;-49
2021/07/11 02:47:53;;;;;;;1.70;1.60;;;25.00;46.60;;;;;;5026410;28;20239;-55
2021/07/11 02:50:19;;;;;;;1.80;1.70;;;25.00;46.60;;;;;;5020298;28;20225;-53
2021/07/11 02:52:46;;;;;;;1.80;1.70;;;25.00;46.60;;;;;;5026171;28;20313;-47
2021/07/11 02:55:12;;;;;;;2.78;1.98;;;25.00;46.60;;;;;;5013179;28;20658;-47
2021/07/11 02:57:39;;;;;;;1.77;1.67;;;25.00;46.70;;;;;;5017268;28;20209;-48
2021/07/11 03:00:05;;;;;;;1.80;1.70;;;24.90;46.60;;;;;;5012498;28;20231;-49
2021/07/11 03:02:32;;;;;;;1.90;1.80;;;24.90;46.70;;;;;;5026731;28;20207;-52
2021/07/11 03:04:58;;;;;;;1.70;1.60;;;25.00;46.80;;;;;;5014911;28;20204;-50
2021/07/11 03:07:24;;;;;;;1.83;1.73;;;24.90;46.70;;;;;;5019539;28;20203;-53
2021/07/11 03:09:51;;;;;;;1.80;1.60;;;25.00;46.80;;;;;;5014015;28;20237;-52
2021/07/11 03:12:17;;;;;;;1.80;1.70;;;25.00;46.80;;;;;;5012749;28;20223;-49
2021/07/11 03:14:44;;;;;;;1.77;1.67;;;24.90;46.80;;;;;;5023203;28;20209;-52
2021/07/11 03:17:10;;;;;;;1.60;1.50;;;25.00;46.90;;;;;;5012653;28;20206;-50
2021/07/11 03:19:37;;;;;;;1.60;1.50;;;25.00;46.90;;;;;;5013082;28;20219;-51
2021/07/11 03:22:03;;;;;;;1.70;1.60;;;25.00;46.90;;;;;;5015562;28;20215;-52
2021/07/11 03:24:29;;;;;;;2.85;1.60;;;24.90;46.80;;;;;;5019974;28;20209;-50
2021/07/11 03:26:56;;;;;;;1.80;1.70;;;24.90;46.80;;;;;;5013699;28;20207;-47
2021/07/11 03:29:25;;;;;;;1.52;1.42;;;24.90;46.80;;;;;;5031047;28;20256;-52
2021/07/11 03:31:52;;;;;;;2.00;1.80;;;25.00;46.90;;;;;;5019458;28;20227;-50
2021/07/11 03:34:18;;;;;;;1.75;1.50;;;25.00;46.80;;;;;;5016571;28;20234;-51
2021/07/11 03:36:45;;;;;;;1.50;1.40;;;24.90;46.80;;;;;;5021428;28;20203;-49
2021/07/11 03:39:11;;;;;;;1.77;1.67;;;24.90;46.80;;;;;;5030751;28;20223;-47
2021/07/11 03:41:37;;;;;;;2.08;1.70;;;25.00;46.80;;;;;;5016038;28;20221;-51
2021/07/11 03:44:04;;;;;;;1.80;1.70;;;25.00;46.80;;;;;;5018864;28;20203;-51
2021/07/11 03:46:30;;;;;;;1.55;1.45;;;24.90;46.70;;;;;;5017676;28;20496;-52
2021/07/11 03:48:57;;;;;;;1.52;1.42;;;24.90;46.70;;;;;;5011470;28;20585;-48
2021/07/11 03:51:23;;;;;;;1.73;1.63;;;24.90;46.70;;;;;;5014284;28;20611;-51
2021/07/11 03:53:50;;;;;;;1.70;1.60;;;24.90;46.70;;;;;;5021049;28;20570;-52
2021/07/11 03:56:16;;;;;;;1.70;1.60;;;24.90;46.70;;;;;;5028751;28;20777;-49
2021/07/11 03:58:42;;;;;;;1.98;1.88;;;24.90;46.70;;;;;;5011509;28;20675;-47
2021/07/11 04:01:09;;;;;;;1.50;1.40;;;25.00;46.80;;;;;;5002765;28;20202;-51
2021/07/11 04:03:35;;;;;;;1.70;1.60;;;24.90;46.70;;;;;;5019216;28;20199;-50
2021/07/11 04:06:03;;;;;;;1.63;1.52;;;25.00;46.70;;;;;;5024660;28;20196;-53
2021/07/11 04:08:29;;;;;;;1.70;1.60;;;24.90;46.60;;;;;;5017993;28;20203;-51
2021/07/11 04:10:56;;;;;;;1.63;1.52;;;24.90;46.60;;;;;;5028089;28;20308;-52
2021/07/11 04:13:23;;;;;;;1.95;1.73;;;24.90;46.60;;;;;;5016023;28;20227;-52
2021/07/11 04:15:49;;;;;;;1.80;1.70;;;24.90;46.60;;;;;;5015605;28;20687;-52
2021/07/11 04:18:16;;;;;;;1.70;1.60;;;24.90;46.60;;;;;;5011882;28;20207;-48
2021/07/11 04:20:42;;;;;;;1.50;1.40;;;24.90;46.60;;;;;;5013148;28;20702;-48
2021/07/11 04:23:09;;;;;;;1.75;1.65;;;24.90;46.60;;;;;;5022502;28;20217;-52
2021/07/11 04:25:35;;;;;;;1.58;1.48;;;24.90;46.60;;;;;;5015576;28;20645;-52
2021/07/11 04:28:02;;;;;;;1.63;1.52;;;24.90;46.60;;;;;;5014226;28;20207;-51
2021/07/11 04:30:28;;;;;;;1.55;1.45;;;24.90;46.60;;;;;;5013712;28;20233;-52
2021/07/11 04:32:54;;;;;;;1.77;1.67;;;24.90;46.60;;;;;;5011545;28;20327;-50
2021/07/11 04:35:21;;;;;;;1.70;1.60;;;24.90;46.60;;;;;;5021719;28;20210;-52
2021/07/11 04:37:47;;;;;;;1.88;1.77;;;24.90;46.60;;;;;;5020402;28;20213;-52
2021/07/11 04:40:14;;;;;;;1.42;1.33;;;24.90;46.60;;;;;;5027860;28;20218;-53
2021/07/11 04:42:40;;;;;;;1.80;1.70;;;24.90;46.60;;;;;;5024778;28;20208;-51
2021/07/11 04:45:07;;;;;;;1.50;1.40;;;24.90;46.60;;;;;;5015330;28;20294;-51
2021/07/11 04:47:33;;;;;;;1.80;1.70;;;24.90;46.60;;;;;;5016058;28;20210;-51
2021/07/11 04:50:00;;;;;;;1.70;1.50;;;24.90;46.60;;;;;;5016329;28;20219;-47
2021/07/11 04:52:26;;;;;;;1.80;1.70;;;24.90;46.60;;;;;;5018448;28;20560;-49
2021/07/11 04:54:53;;;;;;;1.63;1.50;;;24.90;46.60;;;;;;5012410;28;20651;-48
2021/07/11 04:57:19;;;;;;;1.60;1.50;;;24.90;46.60;;;;;;5024189;28;20568;-50
2021/07/11 04:59:46;;;;;;;1.70;1.60;;;24.90;46.60;;;;;;5012724;28;20255;-47
2021/07/11 05:02:12;;;;;;;1.50;1.40;;;24.90;46.60;;;;;;5015522;28;20229;-48
2021/07/11 05:04:39;;;;;;;1.60;1.50;;;24.90;46.60;;;;;;5011263;28;20221;-49
2021/07/11 05:07:05;;;;;;;1.60;1.50;;;24.90;46.60;;;;;;5021923;28;20199;-47
2021/07/11 05:09:32;;;;;;;1.70;1.60;;;24.90;46.60;;;;;;5009125;28;20596;-50
2021/07/11 05:11:58;;;;;;;1.63;1.52;;;24.90;46.60;;;;;;5017713;28;20736;-47
2021/07/11 05:14:24;;;;;;;1.50;1.40;;;24.90;46.60;;;;;;5024547;28;20706;-46
2021/07/11 05:16:52;;;;;;;1.65;1.55;;;24.90;46.60;;;;;;5012297;28;20227;-48
2021/07/11 05:19:18;;;;;;;1.60;1.50;;;24.90;46.60;;;;;;5011290;28;20219;-52
2021/07/11 05:21:45;;;;;;;1.63;1.52;;;24.90;46.60;;;;;;5011298;28;20213;-50
2021/07/11 05:24:11;;;;;;;1.50;1.40;;;24.90;47.30;;;;;;5018029;28;20213;-46
2021/07/11 05:26:38;;;;;;;1.60;1.50;;;24.90;46.60;;;;;;5023879;28;20203;-46
2021/07/11 05:29:04;;;;;;;1.60;1.50;;;24.90;46.60;;;;;;5020883;28;20588;-47
2021/07/11 05:31:30;;;;;;;2.03;1.38;;;24.90;47.60;;;;;;5021604;28;20566;-47
2021/07/11 05:33:57;;;;;;;1.60;1.50;;;24.90;46.80;;;;;;5018246;28;20732;-46
2021/07/11 05:36:23;;;;;;;1.20;1.20;;;24.90;46.90;;;;;;5021865;28;20204;-46
2021/07/11 05:38:50;;;;;;;1.30;1.20;;;24.90;46.90;;;;;;5016575;28;20229;-49
2021/07/11 05:41:16;;;;;;;1.70;1.60;;;24.90;47.00;;;;;;5020921;28;20207;-49
2021/07/11 05:43:43;;;;;;;1.98;1.65;;;24.90;47.00;;;;;;5023416;28;20212;-51
2021/07/11 05:46:10;;;;;;;1.55;1.45;;;24.90;47.00;;;;;;5019869;28;20203;-50
2021/07/11 05:48:36;;;;;;;1.60;1.50;;;24.90;47.00;;;;;;5020459;28;20228;-49
2021/07/11 05:51:03;;;;;;;1.50;1.40;;;24.90;47.00;;;;;;5019405;28;20582;-46
2021/07/11 05:53:29;;;;;;;1.67;1.58;;;24.90;46.90;;;;;;5025064;28;20237;-48
2021/07/11 05:55:56;;;;;;;1.48;1.38;;;24.90;46.90;;;;;;5026103;28;20203;-48
2021/07/11 05:58:22;;;;;;;1.52;1.42;;;24.90;46.90;;;;;;5031670;28;20218;-49
2021/07/11 06:00:48;;;;;;;1.42;1.33;;;24.90;46.90;;;;;;5015516;28;20205;-50
2021/07/11 06:03:15;;;;;;;1.60;1.50;;;24.90;46.90;;;;;;5023238;28;20211;-47
2021/07/11 06:05:43;;;;;;;1.65;1.55;;;24.90;46.90;;;;;;5030918;28;20213;-48
2021/07/11 06:08:09;;;;;;;2.20;1.42;;;24.90;46.80;;;;;;5022078;28;20266;-50
2021/07/11 06:10:36;;;;;;;1.50;1.40;;;24.90;46.80;;;;;;5020669;28;20200;-49
2021/07/11 06:13:02;;;;;;;1.70;1.60;;;24.90;46.80;;;;;;5025196;28;20237;-51
2021/07/11 06:15:29;;;;;;;1.30;1.20;;;24.90;46.80;;;;;;5018966;28;20214;-52
2021/07/11 06:17:55;;;;;;;1.40;1.30;;;24.90;46.80;;;;;;5025013;28;20204;-48
2021/07/11 06:20:22;;;;;;;1.40;1.30;;;24.90;46.70;;;;;;5016661;28;20226;-50
2021/07/11 06:22:49;;;;;;;1.48;1.38;;;24.90;46.70;;;;;;5012587;28;20243;-50
2021/07/11 06:25:15;;;;;;;1.40;1.20;;;24.90;46.70;;;;;;5022403;28;20206;-50
2021/07/11 06:27:42;;;;;;;1.45;1.35;;;24.90;46.70;;;;;;5013957;28;20207;-51
2021/07/11 06:30:09;;;;;;;1.60;1.50;;;24.90;46.70;;;;;;5024160;28;20229;-52
2021/07/11 06:32:36;;;;;;;1.30;1.30;;;24.90;46.70;;;;;;5028924;28;20291;-52
2021/07/11 06:35:02;;;;;;;1.42;1.33;;;24.90;46.70;;;;;;5021961;28;20236;-47
2021/07/11 06:37:28;;;;;;;1.52;1.42;;;24.90;46.70;;;;;;5033445;28;20202;-50
2021/07/11 06:39:55;;;;;;;1.45;1.35;;;24.90;46.70;;;;;;5018204;28;20230;-52
2021/07/11 06:42:21;;;;;;;1.42;1.33;;;24.90;46.70;;;;;;5025686;28;20195;-52
2021/07/11 06:44:48;;;;;;;1.40;1.30;;;24.90;46.70;;;;;;5012680;28;20290;-49
2021/07/11 06:47:14;;;;;;;1.45;1.35;;;24.90;46.70;;;;;;5017885;28;20198;-51
2021/07/11 06:49:41;;;;;;;1.48;1.38;;;24.90;46.70;;;;;;5017860;28;20223;-49
2021/07/11 06:52:07;;;;;;;1.58;1.48;;;24.90;46.60;;;;;;5020560;28;20208;-49
2021/07/11 06:54:34;;;;;;;1.63;1.52;;;24.90;46.60;;;;;;5015535;28;20613;-49
2021/07/11 06:57:00;;;;;;;1.38;1.30;;;24.90;46.60;;;;;;5012802;28;20568;-46
2021/07/11 06:59:27;;;;;;;1.42;1.33;;;24.90;46.60;;;;;;5016122;28;20907;-46
2021/07/11 07:01:53;;;;;;;1.85;1.60;;;24.90;46.60;;;;;;5022379;28;20283;-47
2021/07/11 07:04:20;;;;;;;1.30;1.20;;;24.90;46.50;;;;;;5027555;28;20568;-47
2021/07/11 07:06:46;;;;;;;1.55;1.45;;;24.90;46.60;;;;;;5007571;28;20504;-47
2021/07/11 07:09:12;;;;;;;2.00;1.25;;;24.90;46.60;;;;;;5014997;28;20249;-48
2021/07/11 07:11:39;;;;;;;1.73;1.50;;;24.90;46.80;;;;;;5020157;28;20567;-53
2021/07/11 07:14:05;;;;;;;1.33;1.23;;;24.90;47.10;;;;;;5015503;28;20601;-53
2021/07/11 07:16:32;;;;;;;1.50;1.40;;;24.90;47.70;;;;;;5016525;28;20609;-49
2021/07/11 07:18:58;;;;;;;2.42;1.10;;;24.90;47.90;;;;;;5015344;28;20680;-53
2021/07/11 07:21:25;;;;;;;1.30;1.23;;;24.90;47.80;;;;;;5020436;28;20777;-49
2021/07/11 07:23:51;;;;;;;1.38;1.20;;;24.90;47.80;;;;;;5010271;28;20207;-52
2021/07/11 07:26:17;;;;;;;1.25;1.20;;;24.90;47.60;;;;;;5012291;28;20199;-54
2021/07/11 07:28:44;;;;;;;1.27;1.17;;;24.90;47.60;;;;;;5012507;28;20227;-49
2021/07/11 07:31:10;;;;;;;0.98;0.98;;;24.90;47.50;;;;;;5012294;28;20207;-49
2021/07/11 07:33:37;;;;;;;1.20;1.10;;;24.90;47.20;;;;;;5018073;28;20674;-51
2021/07/11 07:36:03;;;;;;;2.05;1.10;;;24.90;47.10;;;;;;5024007;28;20285;-56
2021/07/11 07:38:30;;;;;;;2.92;1.10;;;24.90;47.20;;;;;;5019206;28;20260;-47
2021/07/11 07:40:56;;;;;;;5.47;1.00;;;24.90;47.20;;;;;;5027152;28;20210;-53
2021/07/11 07:43:23;;;;;;;6.28;1.77;;;24.90;47.10;;;;;;5025709;28;20265;-53
2021/07/11 07:45:49;;;;;;;1.45;1.30;;;24.90;47.30;;;;;;5001471;28;20212;-49
2021/07/11 07:48:16;;;;;;;1.33;1.20;;;24.20;44.70;;;;;;5005708;28;20350;-58
2021/07/11 07:50:42;;;;;;;1.42;1.13;;;23.70;44.20;;;;;;5013240;28;20203;-56
2021/07/11 07:53:08;;;;;;;1.10;1.00;;;22.30;45.30;;;;;;5010585;28;20210;-51
2021/07/11 07:55:35;;;;;;;1.10;1.00;;;22.10;47.40;;;;;;5011204;28;20201;-55
2021/07/11 07:58:01;;;;;;;3.72;1.55;;;22.30;47.80;;;;;;5027247;28;20198;-54
2021/07/11 08:00:28;;;;;;;0.70;0.70;;;22.90;46.70;;;;;;5009565;28;20203;-55
2021/07/11 08:02:54;;;;;;;2.40;0.90;;;23.40;46.20;;;;;;5022162;28;20202;-54
2021/07/11 08:05:21;;;;;;;0.95;0.95;;;23.70;45.80;;;;;;5004666;28;20206;-52
2021/07/11 08:07:47;;;;;;;2.35;1.05;;;23.90;45.70;;;;;;5020123;28;20202;-52
2021/07/11 08:10:15;;;;;;;1.30;1.02;;;24.00;45.50;;;;;;5022913;28;20200;-51
2021/07/11 08:12:41;;;;;;;1.40;1.30;;;24.20;45.60;;;;;;5008284;28;20195;-52
2021/07/11 08:15:08;;;;;;;1.23;1.13;;;24.20;45.50;;;;;;5013137;28;20258;-50
2021/07/11 08:17:34;;;;;;;1.77;1.20;;;24.30;45.60;;;;;;5010106;28;20261;-56
2021/07/11 08:20:00;;;;;;;1.10;1.00;;;24.30;45.50;;;;;;5010662;28;20195;-51
2021/07/11 08:22:27;;;;;;;1.42;1.10;;;24.30;45.50;;;;;;5013654;28;20298;-52
2021/07/11 08:24:53;;;;;;;2.25;1.20;;;24.30;45.50;;;;;;5011041;28;20211;-53
2021/07/11 08:27:20;;;;;;;1.00;0.90;;;24.40;45.60;;;;;;5013210;28;20204;-52
2021/07/11 08:29:50;;;;;;;1.60;1.20;;;24.40;45.60;;;;;;5016120;28;20241;-52
2021/07/11 08:32:17;;;;;;;1.17;0.90;;;24.40;46.30;;;;;;5025303;28;20203;-54
2021/07/11 08:34:43;;;;;;;1.05;1.00;;;24.40;45.70;;;;;;5029759;28;20233;-53
2021/07/11 08:37:10;;;;;;;1.42;1.05;;;24.40;45.70;;;;;;5024240;28;20209;-53
2021/07/11 08:39:36;;;;;;;1.00;1.00;;;24.40;45.70;;;;;;5008509;28;20223;-47
2021/07/11 08:42:03;;;;;;;1.40;1.30;;;24.40;45.80;;;;;;5015214;28;20297;-47
2021/07/11 08:44:29;;;;;;;1.52;1.10;;;24.50;45.70;;;;;;5024189;28;20198;-52
2021/07/11 08:46:55;;;;;;;1.20;1.10;;;24.50;45.70;;;;;;5017989;28;20195;-50
2021/07/11 08:49:22;;;;;;;1.58;1.38;;;24.60;45.70;;;;;;5026363;28;20218;-51
2021/07/11 08:51:48;;;;;;;3.03;1.10;;;24.60;45.70;;;;;;5015134;28;20199;-55
2021/07/11 08:54:16;;;;;;;2.67;1.00;;;24.60;46.20;;;;;;5016329;28;20230;-54
2021/07/11 08:56:42;;;;;;;1.25;1.00;;;24.60;45.90;;;;;;5021166;28;20211;-53
2021/07/11 08:59:09;;;;;;;0.90;0.90;;;24.60;45.70;;;;;;5013435;28;20227;-53
2021/07/11 09:01:35;;;;;;;1.63;1.10;;;24.70;45.90;;;;;;5000382;28;20208;-52
2021/07/11 09:04:02;;;;;;;1.20;1.10;;;24.70;45.80;;;;;;5007181;28;20353;-46
2021/07/11 09:06:28;;;;;;;3.00;1.08;;;24.70;46.00;;;;;;5010883;28;20199;-49
2021/07/11 09:08:55;;;;;;;1.20;1.10;;;24.70;45.70;;;;;;5006856;28;20310;-48
2021/07/11 09:11:22;;;;;;;1.73;1.00;;;24.70;45.50;;;;;;5010815;28;20490;-45
2021/07/11 09:13:49;;;;;;;1.00;1.00;;;24.70;45.50;;;;;;5009847;28;20230;-57
2021/07/11 09:16:16;;;;;;;1.00;1.00;;;24.80;45.50;;;;;;5010741;28;20203;-51
2021/07/11 09:18:42;;;;;;;1.35;1.13;;;24.80;45.50;;;;;;5010600;28;20314;-52
2021/07/11 09:21:11;;;;;;;1.33;0.90;;;24.80;45.50;;;;;;5010371;28;20289;-53
2021/07/11 09:23:37;;;;;;;1.20;1.10;;;24.80;45.40;;;;;;5002770;28;20217;-56
2021/07/11 09:26:04;;;;;;;1.38;1.00;;;24.80;45.30;;;;;;4997885;28;20211;-55
2021/07/11 09:28:30;;;;;;;1.60;1.20;;;24.80;45.70;;;;;;5017284;28;20238;-50
2021/07/11 09:30:56;;;;;;;1.20;1.10;;;24.80;46.10;;;;;;5010224;28;20203;-57
2021/07/11 09:33:23;;;;;;;1.30;1.20;;;24.80;45.90;;;;;;5003416;28;20215;-54
2021/07/11 09:35:51;;;;;;;1.08;1.00;;;24.90;45.80;;;;;;5008832;28;20226;-58
2021/07/11 09:38:18;;;;;;;2.38;1.00;;;24.90;45.80;;;;;;5011564;28;20250;-56
2021/07/11 09:40:45;;;;;;;1.20;1.10;;;24.90;45.60;;;;;;5010923;28;20202;-57
2021/07/11 09:43:11;;;;;;;1.00;1.00;;;24.90;45.50;;;;;;5009817;28;20207;-54
2021/07/11 09:45:37;;;;;;;1.25;1.17;;;24.90;45.60;;;;;;5010208;28;20215;-55
2021/07/11 09:48:04;;;;;;;1.20;1.10;;;24.90;45.50;;;;;;5010820;28;20232;-53
2021/07/11 09:50:30;;;;;;;1.33;1.10;;;24.90;46.00;;;;;;5010189;28;20223;-56
2021/07/11 09:52:57;;;;;;;1.27;1.10;;;24.90;45.90;;;;;;5004573;28;20211;-54
2021/07/11 09:55:23;;;;;;;1.95;1.10;;;24.90;45.60;;;;;;5014746;28;20238;-53
2021/07/11 09:57:50;;;;;;;1.02;1.00;;;24.90;45.80;;;;;;5023082;28;20215;-53
2021/07/11 10:00:16;;;;;;;0.90;0.90;;;24.90;45.50;;;;;;5012546;28;20942;-55
2021/07/11 10:02:43;;;;;;;1.08;0.90;;;24.90;45.40;;;;;;5008399;28;20225;-53
2021/07/11 10:05:09;;;;;;;0.90;0.90;;;25.00;45.40;;;;;;5010071;28;20581;-55
2021/07/11 10:07:35;;;;;;;1.02;0.93;;;25.00;45.40;;;;;;5010008;28;20670;-55
2021/07/11 10:10:02;;;;;;;1.10;1.00;;;25.00;45.40;;;;;;5009674;28;20530;-53
2021/07/11 10:12:28;;;;;;;1.20;1.10;;;24.90;45.30;;;;;;5009857;28;20199;-52
2021/07/11 10:14:55;;;;;;;1.65;1.20;;;24.90;45.20;;;;;;5017339;28;20252;-54
2021/07/11 10:17:21;;;;;;;2.45;1.33;;;25.00;45.60;;;;;;5017441;28;20583;-53
2021/07/11 10:19:48;;;;;;;2.13;1.40;;;24.90;45.50;;;;;;5016551;28;20602;-55
2021/07/11 10:22:14;;;;;;;1.55;1.45;;;24.90;45.40;;;;;;5015506;28;20721;-56
2021/07/11 10:24:41;;;;;;;2.78;1.38;;;24.90;45.40;;;;;;5016852;28;20570;-57
2021/07/11 10:27:08;;;;;;;2.13;1.60;;;24.90;45.40;;;;;;5013525;28;20214;-57
2021/07/11 10:29:34;;;;;;;2.70;1.75;;;24.90;45.20;;;;;;5020615;28;20215;-56
2021/07/11 10:32:00;;;;;;;1.60;1.50;;;25.00;45.70;;;;;;5014014;28;20203;-56
2021/07/11 10:34:27;;;;;;;3.65;1.98;;;25.00;45.60;;;;;;5010239;28;20257;-55
2021/07/11 10:36:53;;;;;;;24.05;9.82;;;25.00;45.90;;;;;;5019879;28;20203;-57
2021/07/11 10:39:20;;;;;;;19.65;8.65;;;25.00;45.90;;;;;;5013258;28;20210;-54
2021/07/11 10:41:46;;;;;;;29.42;13.82;;;25.00;45.50;;;;;;5012371;28;20203;-55
2021/07/11 10:44:13;;;;;;;19.98;10.82;;;25.00;46.00;;;;;;5013755;28;20206;-57
2021/07/11 10:46:41;;;;;;;14.73;7.97;;;25.00;45.30;;;;;;5013327;28;20758;-56
2021/07/11 10:49:07;;;;;;;14.15;7.57;;;25.00;44.70;;;;;;5013870;28;20566;-53
2021/07/11 10:51:34;;;;;;;9.63;5.90;;;25.00;45.20;;;;;;5012850;28;20698;-55
2021/07/11 10:54:00;;;;;;;10.40;5.47;;;24.90;43.90;;;;;;5011078;28;20626;-55
2021/07/11 10:56:27;;;;;;;6.07;4.03;;;24.90;43.70;;;;;;5015363;28;20198;-55
2021/07/11 10:58:53;;;;;;;5.75;3.53;;;24.90;43.70;;;;;;5026895;28;20786;-55
2021/07/11 11:01:19;;;;;;;5.40;3.55;;;24.90;43.70;;;;;;5007360;28;20668;-54
2021/07/11 11:03:46;;;;;;;4.57;3.15;;;24.90;43.70;;;;;;5014934;28;20211;-55
2021/07/11 11:06:14;;;;;;;3.70;2.78;;;24.90;43.70;;;;;;5010320;28;20199;-55
2021/07/11 11:08:40;;;;;;;3.33;2.45;;;24.90;43.60;;;;;;5030949;28;20242;-56
2021/07/11 11:11:07;;;;;;;2.78;2.17;;;24.90;43.70;;;;;;5017163;28;20213;-57
2021/07/11 11:13:33;;;;;;;3.05;2.35;;;24.90;43.70;;;;;;5009024;28;20207;-57
2021/07/11 11:16:00;;;;;;;3.03;2.28;;;24.90;43.80;;;;;;5009123;28;20223;-57
2021/07/11 11:18:27;;;;;;;3.25;2.50;;;24.90;43.70;;;;;;5013271;28;20230;-57
2021/07/11 11:20:53;;;;;;;2.13;1.92;;;25.00;43.70;;;;;;5010180;28;20203;-59
2021/07/11 11:23:20;;;;;;;2.15;1.85;;;24.90;43.70;;;;;;5021004;28;20210;-58
2021/07/11 11:25:46;;;;;;;4.60;2.38;;;24.90;43.80;;;;;;5025487;28;20301;-59
2021/07/11 11:28:13;;;;;;;1.98;1.80;;;24.90;43.80;;;;;;5010311;28;20219;-60
2021/07/11 11:30:40;;;;;;;2.72;2.15;;;24.90;43.70;;;;;;5015565;28;20195;-57
2021/07/11 11:33:07;;;;;;;2.28;2.03;;;24.90;43.70;;;;;;5017055;28;20206;-57
2021/07/11 11:35:33;;;;;;;2.58;1.95;;;24.90;43.70;;;;;;5027945;28;20230;-58
2021/07/11 11:38:00;;;;;;;2.95;1.85;;;24.90;43.50;;;;;;5017928;28;20219;-54
2021/07/11 11:40:26;;;;;;;2.38;2.00;;;24.90;43.20;;;;;;5008813;28;20230;-51
2021/07/11 11:42:54;;;;;;;2.10;1.90;;;25.00;43.30;;;;;;5008231;28;20572;-54
2021/07/11 11:45:20;;;;;;;2.53;2.13;;;25.00;43.10;;;;;;5020327;28;20256;-53
2021/07/11 11:47:47;;;;;;;2.30;1.80;;;24.90;42.90;;;;;;5015339;28;20223;-50
2021/07/11 11:50:13;;;;;;;2.80;2.00;;;25.00;42.90;;;;;;5018982;28;20229;-54
2021/07/11 11:52:40;;;;;;;1.92;1.70;;;25.00;42.70;;;;;;5024793;28;20202;-50
2021/07/11 11:55:06;;;;;;;1.83;1.73;;;25.00;42.60;;;;;;5010180;28;20253;-49
2021/07/11 11:57:33;;;;;;;2.80;1.58;;;24.90;42.40;;;;;;5008455;28;20223;-50
2021/07/11 11:59:59;;;;;;;2.03;1.60;;;24.90;42.30;;;;;;5011286;28;20624;-51
2021/07/11 12:02:25;;;;;;;2.95;1.90;;;24.90;42.20;;;;;;5010022;28;20291;-49
2021/07/11 12:04:52;;;;;;;1.67;1.58;;;24.90;42.30;;;;;;5011900;28;20230;-52
2021/07/11 12:07:18;;;;;;;2.58;1.83;;;24.90;42.20;;;;;;5015403;28;20595;-51
2021/07/11 12:09:45;;;;;;;2.33;1.58;;;24.90;42.10;;;;;;5009944;28;20226;-53
2021/07/11 12:12:11;;;;;;;2.45;1.55;;;24.90;42.10;;;;;;5011902;28;20596;-50
2021/07/11 12:14:38;;;;;;;2.20;1.80;;;24.90;42.10;;;;;;5008404;28;20256;-50
2021/07/11 12:17:04;;;;;;;2.13;1.77;;;24.90;42.10;;;;;;5017281;28;20314;-54
2021/07/11 12:19:31;;;;;;;1.55;1.45;;;24.90;42.10;;;;;;5014342;28;20635;-54
2021/07/11 12:21:57;;;;;;;1.70;1.60;;;24.90;42.00;;;;;;5021309;28;20681;-49
2021/07/11 12:24:24;;;;;;;1.85;1.48;;;24.90;41.80;;;;;;5009678;28;20213;-54
2021/07/11 12:26:50;;;;;;;1.50;1.40;;;24.90;41.60;;;;;;5009217;28;20233;-52
2021/07/11 12:29:18;;;;;;;2.03;1.73;;;24.90;41.30;;;;;;5014434;28;20689;-53
2021/07/11 12:31:45;;;;;;;1.52;1.23;;;24.90;41.40;;;;;;5014953;28;20205;-55
2021/07/11 12:34:11;;;;;;;2.42;1.55;;;24.90;41.50;;;;;;5019298;28;20217;-50
2021/07/11 12:36:38;;;;;;;1.70;1.55;;;24.90;41.50;;;;;;5009586;28;20230;-54
2021/07/11 12:39:05;;;;;;;1.90;1.30;;;24.90;41.20;;;;;;5017743;28;20278;-55
2021/07/11 12:41:31;;;;;;;1.40;1.30;;;24.90;41.10;;;;;;5008877;28;20211;-50